Time;durP1;ratioP1;P1;durP2;ratioP2;P2;SDS_P1;SDS_P2;PMS_P1;PMS_P2;Temp;Humidity;BMP_temperature;BMP_pressure;BME280_temperature;BME280_humidity;BME280_pressure;Samples;Min_cycle;Max_cycle;Signal;HPM_P1;HPM_P2
2023/04/15 00:01:56;;;;;;;0.20;0.20;;;;;;;;;;6217956;23;20051;-86
2023/04/15 00:04:22;;;;;;;0.20;0.20;;;;;;;;;;6243574;23;20012;-86
2023/04/15 00:06:52;;;;;;;0.20;0.20;;;;;;;;;;6219723;23;20072;-86
2023/04/15 00:09:18;;;;;;;0.20;0.20;;;;;;;;;;6227764;23;20016;-86
2023/04/15 00:11:45;;;;;;;0.20;0.20;;;;;;;;;;6218822;23;20069;-87
2023/04/15 00:14:11;;;;;;;0.13;0.13;;;;;;;;;;6244868;23;20054;-86
2023/04/15 00:16:37;;;;;;;0.20;0.20;;;;;;;;;;6218155;23;20559;-86
2023/04/15 00:19:03;;;;;;;0.20;0.20;;;;;;;;;;6220612;23;20028;-85
2023/04/15 00:21:30;;;;;;;0.17;0.17;;;;;;;;;;6245480;23;20441;-86
2023/04/15 00:23:56;;;;;;;0.10;0.10;;;;;;;;;;6244503;23;20016;-85
2023/04/15 00:26:22;;;;;;;0.20;0.20;;;;;;;;;;6215413;23;20016;-86
2023/04/15 00:28:48;;;;;;;0.20;0.20;;;;;;;;;;6216681;23;20016;-86
2023/04/15 00:31:15;;;;;;;0.20;0.20;;;;;;;;;;6216022;23;20020;-87
2023/04/15 00:33:43;;;;;;;0.10;0.10;;;;;;;;;;6218305;23;20020;-85
2023/04/15 00:36:10;;;;;;;0.20;0.20;;;;;;;;;;6252581;23;20038;-86
2023/04/15 00:38:38;;;;;;;0.20;0.20;;;;;;;;;;6268157;23;20031;-85
2023/04/15 00:41:04;;;;;;;0.10;0.10;;;;;;;;;;6239319;23;20032;-84
2023/04/15 00:43:37;;;;;;;0.20;0.20;;;;;;;;;;6224746;23;20023;-86
2023/04/15 00:46:04;;;;;;;0.15;0.15;;;;;;;;;;6217324;23;20079;-86
2023/04/15 00:48:31;;;;;;;0.20;0.20;;;;;;;;;;6215987;23;20066;-85
2023/04/15 00:50:59;;;;;;;0.20;0.20;;;;;;;;;;6242879;23;20020;-86
2023/04/15 00:53:26;;;;;;;0.20;0.20;;;;;;;;;;6241946;23;20028;-85
2023/04/15 00:55:52;;;;;;;0.20;0.20;;;;;;;;;;6242711;23;20036;-85
2023/04/15 00:58:18;;;;;;;0.20;0.20;;;;;;;;;;6210885;23;20488;-85
2023/04/15 01:00:45;;;;;;;0.10;0.10;;;;;;;;;;6214486;23;20388;-85
2023/04/15 01:03:11;;;;;;;0.20;0.20;;;;;;;;;;6246949;23;20031;-86
2023/04/15 01:05:39;;;;;;;0.20;0.20;;;;;;;;;;6254707;23;20480;-85
2023/04/15 01:08:05;;;;;;;0.20;0.20;;;;;;;;;;6245609;23;20146;-85
2023/04/15 01:10:31;;;;;;;0.20;0.20;;;;;;;;;;6216086;23;20040;-85
2023/04/15 01:12:57;;;;;;;0.20;0.20;;;;;;;;;;6244352;23;20020;-85
2023/04/15 01:15:23;;;;;;;0.20;0.20;;;;;;;;;;6244695;23;20016;-85
2023/04/15 01:17:49;;;;;;;0.20;0.20;;;;;;;;;;6217822;23;20085;-85
2023/04/15 01:20:19;;;;;;;0.20;0.20;;;;;;;;;;6213131;23;20048;-85
2023/04/15 01:22:45;;;;;;;0.20;0.20;;;;;;;;;;6244791;23;20480;-84
2023/04/15 01:25:17;;;;;;;0.20;0.20;;;;;;;;;;6218041;23;20024;-84
2023/04/15 01:27:43;;;;;;;0.20;0.20;;;;;;;;;;6215465;23;20483;-85
2023/04/15 01:30:09;;;;;;;0.20;0.20;;;;;;;;;;6244787;23;20059;-85
2023/04/15 01:32:35;;;;;;;0.20;0.20;;;;;;;;;;6217494;23;20047;-85
2023/04/15 01:35:01;;;;;;;0.17;0.17;;;;;;;;;;6216873;23;20344;-85
2023/04/15 01:37:28;;;;;;;0.20;0.20;;;;;;;;;;6216953;23;20020;-84
2023/04/15 01:39:56;;;;;;;0.20;0.20;;;;;;;;;;6244786;23;20020;-84
2023/04/15 01:42:22;;;;;;;0.20;0.20;;;;;;;;;;6241840;23;20051;-85
2023/04/15 01:44:51;;;;;;;0.20;0.20;;;;;;;;;;6246019;23;20384;-85
2023/04/15 01:47:17;;;;;;;0.20;0.20;;;;;;;;;;6216849;23;20058;-84
2023/04/15 01:49:43;;;;;;;0.20;0.20;;;;;;;;;;6214663;23;20095;-83
2023/04/15 01:52:09;;;;;;;0.20;0.20;;;;;;;;;;6213098;23;20052;-84
2023/04/15 01:54:35;;;;;;;0.20;0.20;;;;;;;;;;6244116;23;20012;-84
2023/04/15 01:57:04;;;;;;;0.20;0.20;;;;;;;;;;6216506;23;20020;-84
2023/04/15 01:59:31;;;;;;;0.10;0.10;;;;;;;;;;6244753;23;20114;-84
2023/04/15 02:01:57;;;;;;;0.20;0.20;;;;;;;;;;6217084;23;20047;-84
2023/04/15 02:04:23;;;;;;;0.20;0.20;;;;;;;;;;6218437;23;20030;-84
2023/04/15 02:06:49;;;;;;;0.20;0.20;;;;;;;;;;6218990;23;20024;-84
2023/04/15 02:09:15;;;;;;;0.20;0.20;;;;;;;;;;6244653;23;20012;-84
2023/04/15 02:11:41;;;;;;;0.20;0.20;;;;;;;;;;6217675;23;20340;-84
2023/04/15 02:14:10;;;;;;;0.20;0.20;;;;;;;;;;6245388;23;20074;-84
2023/04/15 02:16:36;;;;;;;0.20;0.20;;;;;;;;;;6246244;23;20020;-84
2023/04/15 02:19:02;;;;;;;0.10;0.10;;;;;;;;;;6220271;23;20730;-84
2023/04/15 02:21:28;;;;;;;0.20;0.20;;;;;;;;;;6240652;22;20015;-84
2023/04/15 02:23:55;;;;;;;0.20;0.20;;;;;;;;;;6240990;23;20012;-85
2023/04/15 02:26:24;;;;;;;0.20;0.20;;;;;;;;;;6220836;23;20016;-84
2023/04/15 02:28:50;;;;;;;0.20;0.20;;;;;;;;;;6215689;23;20016;-84
2023/04/15 02:31:16;;;;;;;0.20;0.20;;;;;;;;;;6215486;23;20091;-85
2023/04/15 02:33:42;;;;;;;0.20;0.20;;;;;;;;;;6228932;23;20074;-84
2023/04/15 02:36:10;;;;;;;0.20;0.20;;;;;;;;;;6218729;23;20375;-85
2023/04/15 02:38:37;;;;;;;0.20;0.20;;;;;;;;;;6216613;23;20020;-84
2023/04/15 02:41:03;;;;;;;0.20;0.20;;;;;;;;;;6212900;23;20024;-83
2023/04/15 02:43:29;;;;;;;0.20;0.20;;;;;;;;;;6242900;23;20023;-85
2023/04/15 02:45:55;;;;;;;0.20;0.20;;;;;;;;;;6216712;23;20388;-85
2023/04/15 02:48:27;;;;;;;0.20;0.20;;;;;;;;;;6241414;23;20016;-85
2023/04/15 02:50:53;;;;;;;0.20;0.20;;;;;;;;;;6241560;23;20020;-84
2023/04/15 02:53:19;;;;;;;0.20;0.20;;;;;;;;;;6215190;23;20023;-85
2023/04/15 02:55:45;;;;;;;0.20;0.20;;;;;;;;;;6241521;23;20467;-85
2023/04/15 02:58:14;;;;;;;0.20;0.20;;;;;;;;;;6214755;23;20024;-84
2023/04/15 03:00:40;;;;;;;0.20;0.20;;;;;;;;;;6216162;23;20044;-84
2023/04/15 03:03:07;;;;;;;0.20;0.20;;;;;;;;;;6217062;23;20043;-85
2023/04/15 03:05:33;;;;;;;0.20;0.20;;;;;;;;;;6242774;23;20094;-85
2023/04/15 03:08:02;;;;;;;0.20;0.20;;;;;;;;;;6220040;23;20016;-85
2023/04/15 03:10:28;;;;;;;0.20;0.20;;;;;;;;;;6218105;23;20042;-86
2023/04/15 03:12:57;;;;;;;0.20;0.20;;;;;;;;;;6243067;23;20027;-85
2023/04/15 03:15:23;;;;;;;0.20;0.20;;;;;;;;;;6216750;23;20051;-85
2023/04/15 03:17:49;;;;;;;0.20;0.20;;;;;;;;;;6217442;23;20023;-85
2023/04/15 03:20:15;;;;;;;0.20;0.20;;;;;;;;;;6243787;23;20034;-85
2023/04/15 03:22:41;;;;;;;0.20;0.20;;;;;;;;;;6218432;23;20020;-86
2023/04/15 03:25:08;;;;;;;0.20;0.20;;;;;;;;;;6245041;23;20095;-85
2023/04/15 03:27:34;;;;;;;0.20;0.20;;;;;;;;;;6243081;23;20012;-87
2023/04/15 03:30:00;;;;;;;0.20;0.20;;;;;;;;;;6244888;23;20016;-85
2023/04/15 03:32:26;;;;;;;0.20;0.20;;;;;;;;;;6218038;23;20016;-85
2023/04/15 03:34:52;;;;;;;0.20;0.20;;;;;;;;;;6243479;23;20388;-85
2023/04/15 03:37:18;;;;;;;0.20;0.20;;;;;;;;;;6244383;23;20016;-85
2023/04/15 03:39:44;;;;;;;0.20;0.20;;;;;;;;;;6244264;23;20055;-86
2023/04/15 03:42:10;;;;;;;0.20;0.20;;;;;;;;;;6215324;23;20019;-85
2023/04/15 03:44:37;;;;;;;0.20;0.20;;;;;;;;;;6217703;23;20019;-86
2023/04/15 03:47:03;;;;;;;0.20;0.20;;;;;;;;;;6245075;23;20109;-85
2023/04/15 03:49:29;;;;;;;0.20;0.20;;;;;;;;;;6248664;23;20026;-86
2023/04/15 03:51:55;;;;;;;0.20;0.20;;;;;;;;;;6218941;23;20024;-86
2023/04/15 03:54:21;;;;;;;0.20;0.20;;;;;;;;;;6243092;23;20016;-85
2023/04/15 03:56:47;;;;;;;0.20;0.20;;;;;;;;;;6215173;23;20034;-86
2023/04/15 03:59:13;;;;;;;0.20;0.20;;;;;;;;;;6245060;23;20016;-87
2023/04/15 04:01:39;;;;;;;0.20;0.20;;;;;;;;;;6256962;23;20067;-87
2023/04/15 04:04:08;;;;;;;0.20;0.20;;;;;;;;;;6258639;22;20011;-85
2023/04/15 04:06:34;;;;;;;0.20;0.20;;;;;;;;;;6239052;23;20020;-86
2023/04/15 04:09:00;;;;;;;0.20;0.20;;;;;;;;;;6227887;23;20024;-86
2023/04/15 04:11:27;;;;;;;0.20;0.20;;;;;;;;;;6215525;23;20016;-85
2023/04/15 04:13:53;;;;;;;0.20;0.20;;;;;;;;;;6242722;23;20043;-86
2023/04/15 04:16:19;;;;;;;0.20;0.20;;;;;;;;;;6243544;23;20008;-85
2023/04/15 04:18:45;;;;;;;0.20;0.20;;;;;;;;;;6215758;23;20448;-85
2023/04/15 04:21:15;;;;;;;0.20;0.20;;;;;;;;;;6217219;23;20020;-85
2023/04/15 04:23:41;;;;;;;0.20;0.20;;;;;;;;;;6215435;23;20008;-85
2023/04/15 04:26:32;;;;;;;0.20;0.20;;;;;;;;;;6239566;22;20030;-85
2023/04/15 04:29:11;;;;;;;;;;;;;;;;;;6215957;23;20023;-86
2023/04/15 04:32:05;;;;;;;0.20;0.20;;;;;;;;;;6248005;23;19920;-86
2023/04/15 04:34:37;;;;;;;0.20;0.20;;;;;;;;;;6243272;23;20059;-85
2023/04/15 04:37:03;;;;;;;0.20;0.20;;;;;;;;;;6241436;23;20023;-84
2023/04/15 04:39:30;;;;;;;0.20;0.20;;;;;;;;;;6244987;23;20020;-84
2023/04/15 04:41:56;;;;;;;0.20;0.20;;;;;;;;;;6216060;23;20027;-84
2023/04/15 04:44:25;;;;;;;0.20;0.20;;;;;;;;;;6244027;23;20023;-85
2023/04/15 04:46:51;;;;;;;0.20;0.20;;;;;;;;;;6217901;23;20018;-85
2023/04/15 04:49:20;;;;;;;0.20;0.20;;;;;;;;;;6217686;23;20024;-85
2023/04/15 04:51:47;;;;;;;0.20;0.20;;;;;;;;;;6244612;23;20012;-84
2023/04/15 04:54:13;;;;;;;0.20;0.20;;;;;;;;;;6218220;23;20020;-84
2023/04/15 04:56:39;;;;;;;0.20;0.20;;;;;;;;;;6215764;23;20012;-84
2023/04/15 04:59:09;;;;;;;0.20;0.20;;;;;;;;;;6216953;23;20504;-83
2023/04/15 05:01:35;;;;;;;0.20;0.20;;;;;;;;;;6219129;23;20058;-84
2023/04/15 05:04:15;;;;;;;0.20;0.20;;;;;;;;;;6243115;23;20020;-82
2023/04/15 05:07:00;;;;;;;0.20;0.20;;;;;;;;;;6245478;23;20431;-82
2023/04/15 05:09:31;;;;;;;0.20;0.20;;;;;;;;;;6217541;23;20012;-82
2023/04/15 05:12:13;;;;;;;0.20;0.20;;;;;;;;;;6238282;23;20024;-82
2023/04/15 05:14:45;;;;;;;0.20;0.20;;;;;;;;;;6249138;23;20686;-82
2023/04/15 05:17:12;;;;;;;0.20;0.20;;;;;;;;;;6245579;23;20016;-82
2023/04/15 05:19:49;;;;;;;0.15;0.15;;;;;;;;;;6244850;23;20016;-83
2023/04/15 05:22:25;;;;;;;0.20;0.20;;;;;;;;;;6217490;23;20409;-82
2023/04/15 05:24:51;;;;;;;0.20;0.20;;;;;;;;;;6245111;23;20016;-82
2023/04/15 05:27:18;;;;;;;0.20;0.20;;;;;;;;;;6243173;23;20032;-82
2023/04/15 05:29:56;;;;;;;0.20;0.20;;;;;;;;;;6219304;23;20055;-82
2023/04/15 05:32:22;;;;;;;0.20;0.20;;;;;;;;;;6246074;23;20020;-82
2023/04/15 05:34:51;;;;;;;0.20;0.20;;;;;;;;;;6218394;23;20098;-82
2023/04/15 05:37:32;;;;;;;0.20;0.20;;;;;;;;;;6246193;23;20020;-82
2023/04/15 05:40:01;;;;;;;0.20;0.20;;;;;;;;;;6246254;23;20012;-81
2023/04/15 05:42:27;;;;;;;0.20;0.20;;;;;;;;;;6242381;23;20077;-82
2023/04/15 05:44:53;;;;;;;0.20;0.20;;;;;;;;;;6220159;23;20039;-81
2023/04/15 05:47:37;;;;;;;0.20;0.20;;;;;;;;;;6223912;23;20024;-80
2023/04/15 05:53:03;;;;;;;0.20;0.20;;;;;;;;;;6250884;23;20027;-82
2023/04/15 05:55:42;;;;;;;0.20;0.20;;;;;;;;;;6213970;23;20023;-82
2023/04/15 05:58:08;;;;;;;0.20;0.20;;;;;;;;;;6216829;23;20329;-81
2023/04/15 06:00:37;;;;;;;0.20;0.20;;;;;;;;;;6244079;23;20016;-81
2023/04/15 06:03:06;;;;;;;0.20;0.20;;;;;;;;;;6244768;23;20043;-82
2023/04/15 06:05:33;;;;;;;0.20;0.20;;;;;;;;;;6216585;23;20020;-80
2023/04/15 06:08:02;;;;;;;0.20;0.20;;;;;;;;;;6216164;23;20066;-81
2023/04/15 06:10:28;;;;;;;0.20;0.20;;;;;;;;;;6243539;23;20027;-81
2023/04/15 06:12:57;;;;;;;0.20;0.20;;;;;;;;;;6215622;23;20495;-81
2023/04/15 06:15:23;;;;;;;0.10;0.10;;;;;;;;;;6213975;23;20051;-82
2023/04/15 06:17:49;;;;;;;0.10;0.10;;;;;;;;;;6217195;23;20012;-82
2023/04/15 06:20:19;;;;;;;0.20;0.20;;;;;;;;;;6216031;23;20478;-82
2023/04/15 06:22:57;;;;;;;0.20;0.20;;;;;;;;;;6215308;23;20514;-82
2023/04/15 06:25:38;;;;;;;0.17;0.17;;;;;;;;;;6240855;23;20457;-82
2023/04/15 06:28:05;;;;;;;0.20;0.20;;;;;;;;;;6242156;23;20020;-81
2023/04/15 06:30:31;;;;;;;0.20;0.20;;;;;;;;;;6215714;23;20016;-82
2023/04/15 06:33:09;;;;;;;0.10;0.10;;;;;;;;;;6216417;23;20476;-81
2023/04/15 06:38:47;;;;;;;0.20;0.20;;;;;;;;;;6217805;23;20090;-81
2023/04/15 06:41:17;;;;;;;0.10;0.10;;;;;;;;;;6243415;23;20039;-82
2023/04/15 06:43:43;;;;;;;0.20;0.20;;;;;;;;;;6244101;23;20020;-81
2023/04/15 06:46:15;;;;;;;0.20;0.20;;;;;;;;;;6243699;23;20310;-81
2023/04/15 06:48:59;;;;;;;0.20;0.20;;;;;;;;;;6243961;23;20012;-81
2023/04/15 06:51:26;;;;;;;0.13;0.13;;;;;;;;;;6243773;23;20026;-81
2023/04/15 06:54:06;;;;;;;0.20;0.20;;;;;;;;;;6215851;23;20020;-81
2023/04/15 06:56:33;;;;;;;0.10;0.10;;;;;;;;;;6241556;23;20019;-81
2023/04/15 06:58:59;;;;;;;0.20;0.20;;;;;;;;;;6242855;23;20020;-81
2023/04/15 07:01:28;;;;;;;0.13;0.13;;;;;;;;;;6216495;23;20016;-80
2023/04/15 07:03:54;;;;;;;0.10;0.10;;;;;;;;;;6216052;23;20039;-81
2023/04/15 07:06:20;;;;;;;0.10;0.10;;;;;;;;;;6216131;23;20016;-81
2023/04/15 07:08:46;;;;;;;0.10;0.10;;;;;;;;;;6244840;23;20016;-82
2023/04/15 07:11:13;;;;;;;0.13;0.13;;;;;;;;;;6215313;23;20016;-82
2023/04/15 07:13:39;;;;;;;0.20;0.20;;;;;;;;;;6244906;23;20031;-83
2023/04/15 07:16:05;;;;;;;0.20;0.20;;;;;;;;;;6245172;23;20166;-83
2023/04/15 07:18:34;;;;;;;0.10;0.10;;;;;;;;;;6243731;23;20665;-83
2023/04/15 07:21:03;;;;;;;0.10;0.10;;;;;;;;;;6215746;23;20027;-82
2023/04/15 07:23:30;;;;;;;0.10;0.10;;;;;;;;;;6244122;23;20451;-83
2023/04/15 07:25:56;;;;;;;0.10;0.10;;;;;;;;;;6214555;23;20016;-83
2023/04/15 07:28:22;;;;;;;0.10;0.10;;;;;;;;;;6216383;23;20090;-83
2023/04/15 07:30:48;;;;;;;0.20;0.20;;;;;;;;;;6220869;23;20024;-83
2023/04/15 07:33:14;;;;;;;0.20;0.20;;;;;;;;;;6241246;23;20019;-83
2023/04/15 07:35:40;;;;;;;0.10;0.10;;;;;;;;;;6254928;23;20061;-83
2023/04/15 07:38:07;;;;;;;0.10;0.10;;;;;;;;;;6243346;23;20020;-83
2023/04/15 07:40:33;;;;;;;0.10;0.10;;;;;;;;;;6214786;23;20016;-83
2023/04/15 07:43:02;;;;;;;0.15;0.15;;;;;;;;;;6216648;23;20019;-83
2023/04/15 07:45:28;;;;;;;0.20;0.20;;;;;;;;;;6215483;23;20024;-81
2023/04/15 07:47:55;;;;;;;0.20;0.20;;;;;;;;;;6214900;23;20015;-82
2023/04/15 07:50:22;;;;;;;0.20;0.20;;;;;;;;;;6241277;23;20433;-82
2023/04/15 07:52:48;;;;;;;0.10;0.10;;;;;;;;;;6215450;23;20024;-81
2023/04/15 07:55:18;;;;;;;0.10;0.10;;;;;;;;;;6213388;23;20043;-82
2023/04/15 07:57:44;;;;;;;0.10;0.10;;;;;;;;;;6213255;23;20038;-83
2023/04/15 08:00:10;;;;;;;0.10;0.10;;;;;;;;;;6214495;23;20016;-81
2023/04/15 08:02:36;;;;;;;0.10;0.10;;;;;;;;;;6215288;23;20027;-83
2023/04/15 08:05:03;;;;;;;0.20;0.20;;;;;;;;;;6216368;23;20023;-82
2023/04/15 08:07:30;;;;;;;0.20;0.20;;;;;;;;;;6215091;23;20019;-82
2023/04/15 08:09:56;;;;;;;0.20;0.20;;;;;;;;;;6216806;23;20012;-83
2023/04/15 08:12:22;;;;;;;0.13;0.13;;;;;;;;;;6242606;23;20016;-84
2023/04/15 08:14:51;;;;;;;0.15;0.15;;;;;;;;;;6244359;23;20259;-84
2023/04/15 08:17:17;;;;;;;0.20;0.20;;;;;;;;;;6243275;23;20471;-82
2023/04/15 08:19:43;;;;;;;0.20;0.20;;;;;;;;;;6244181;23;20012;-82
2023/04/15 08:22:11;;;;;;;0.17;0.17;;;;;;;;;;6214092;23;20016;-81
2023/04/15 08:24:37;;;;;;;0.20;0.20;;;;;;;;;;6215381;23;20117;-84
2023/04/15 08:27:04;;;;;;;0.10;0.10;;;;;;;;;;6214532;23;20020;-83
2023/04/15 08:29:31;;;;;;;0.10;0.10;;;;;;;;;;6193589;22;20103;-82
2023/04/15 08:31:59;;;;;;;0.10;0.10;;;;;;;;;;6215453;23;20055;-82
2023/04/15 08:34:25;;;;;;;0.20;0.20;;;;;;;;;;6216089;23;20389;-80
2023/04/15 08:37:03;;;;;;;0.20;0.20;;;;;;;;;;6213157;23;20070;-80
2023/04/15 08:39:36;;;;;;;0.20;0.20;;;;;;;;;;6215857;23;20062;-82
2023/04/15 08:42:06;;;;;;;0.10;0.10;;;;;;;;;;6215237;23;20020;-82
2023/04/15 08:44:51;;;;;;;0.10;0.10;;;;;;;;;;6214149;23;20020;-82
2023/04/15 08:47:23;;;;;;;0.20;0.20;;;;;;;;;;6215419;23;20017;-81
2023/04/15 08:49:52;;;;;;;0.10;0.10;;;;;;;;;;6243352;23;20024;-81
2023/04/15 08:52:19;;;;;;;0.13;0.13;;;;;;;;;;6214226;23;20052;-80
2023/04/15 08:54:45;;;;;;;0.20;0.20;;;;;;;;;;6217677;23;20051;-80
2023/04/15 08:57:12;;;;;;;0.15;0.15;;;;;;;;;;6214491;23;20074;-80
2023/04/15 08:59:39;;;;;;;0.20;0.20;;;;;;;;;;6242367;23;20017;-80
2023/04/15 09:02:05;;;;;;;0.10;0.10;;;;;;;;;;6242557;23;20012;-78
2023/04/15 09:04:31;;;;;;;0.20;0.20;;;;;;;;;;6242581;23;20074;-78
2023/04/15 09:06:57;;;;;;;0.20;0.20;;;;;;;;;;6243855;23;20027;-79
2023/04/15 09:09:23;;;;;;;0.20;0.20;;;;;;;;;;6216243;23;20016;-80
2023/04/15 09:11:50;;;;;;;0.15;0.15;;;;;;;;;;6241073;23;20016;-79
2023/04/15 09:14:17;;;;;;;0.15;0.15;;;;;;;;;;6241549;23;20020;-79
2023/04/15 09:16:59;;;;;;;0.10;0.10;;;;;;;;;;6226699;23;20016;-78
2023/04/15 09:19:26;;;;;;;0.20;0.20;;;;;;;;;;6246134;23;20648;-77
2023/04/15 09:21:53;;;;;;;0.20;0.20;;;;;;;;;;6241454;23;20023;-79
2023/04/15 09:24:20;;;;;;;0.15;0.15;;;;;;;;;;6213401;23;20016;-79
2023/04/15 09:26:46;;;;;;;0.13;0.13;;;;;;;;;;6209937;23;20165;-79
2023/04/15 09:29:17;;;;;;;0.10;0.10;;;;;;;;;;6213022;23;20154;-79
2023/04/15 09:31:43;;;;;;;0.10;0.10;;;;;;;;;;6215868;23;20020;-78
2023/04/15 09:34:10;;;;;;;0.20;0.20;;;;;;;;;;6244779;23;20012;-79
2023/04/15 09:36:48;;;;;;;0.15;0.15;;;;;;;;;;6242083;23;20016;-77
2023/04/15 09:39:15;;;;;;;0.15;0.15;;;;;;;;;;6242903;23;20066;-76
2023/04/15 09:41:42;;;;;;;0.10;0.10;;;;;;;;;;6215568;23;20020;-77
2023/04/15 09:44:21;;;;;;;0.10;0.10;;;;;;;;;;6216857;23;20053;-79
2023/04/15 09:46:47;;;;;;;0.10;0.10;;;;;;;;;;6215217;23;20027;-75
2023/04/15 09:49:14;;;;;;;0.10;0.10;;;;;;;;;;6243121;23;20510;-79
2023/04/15 09:51:41;;;;;;;0.20;0.20;;;;;;;;;;6244530;23;20020;-78
2023/04/15 09:54:07;;;;;;;0.20;0.20;;;;;;;;;;6242876;23;20020;-78
2023/04/15 09:56:42;;;;;;;0.20;0.20;;;;;;;;;;6214253;23;20012;-79
2023/04/15 09:59:08;;;;;;;0.20;0.20;;;;;;;;;;6215616;23;20020;-79
2023/04/15 10:01:35;;;;;;;0.10;0.10;;;;;;;;;;6216289;23;20020;-79
2023/04/15 10:04:04;;;;;;;0.10;0.10;;;;;;;;;;6217034;23;20016;-78
2023/04/15 10:06:30;;;;;;;0.20;0.20;;;;;;;;;;6215973;23;20020;-79
2023/04/15 10:09:00;;;;;;;0.10;0.10;;;;;;;;;;6243644;23;20008;-79
2023/04/15 10:11:30;;;;;;;0.20;0.20;;;;;;;;;;6215813;23;20070;-79
2023/04/15 10:13:56;;;;;;;0.10;0.10;;;;;;;;;;6241811;23;20337;-81
2023/04/15 10:16:29;;;;;;;0.20;0.20;;;;;;;;;;6214444;23;20330;-80
2023/04/15 10:18:55;;;;;;;0.17;0.17;;;;;;;;;;6216654;23;20016;-80
2023/04/15 10:21:22;;;;;;;0.10;0.10;;;;;;;;;;6215276;23;20024;-79
2023/04/15 10:23:48;;;;;;;0.20;0.20;;;;;;;;;;6217275;23;20015;-79
2023/04/15 10:26:28;;;;;;;0.20;0.20;;;;;;;;;;6216290;22;20023;-81
2023/04/15 10:29:38;;;;;;;0.13;0.13;;;;;;;;;;6247107;22;20016;-80
2023/04/15 10:32:05;;;;;;;0.10;0.10;;;;;;;;;;6274046;22;20027;-81
2023/04/15 10:34:40;;;;;;;0.13;0.13;;;;;;;;;;6272720;22;20016;-80
2023/04/15 10:37:10;;;;;;;0.10;0.10;;;;;;;;;;6245165;22;20023;-81
2023/04/15 10:39:43;;;;;;;0.20;0.20;;;;;;;;;;6274739;22;20027;-79
2023/04/15 10:42:48;;;;;;;0.20;0.20;;;;;;;;;;6246001;22;20474;-81
2023/04/15 10:45:21;;;;;;;0.10;0.10;;;;;;;;;;6247627;22;20023;-80
2023/04/15 10:47:51;;;;;;;0.20;0.20;;;;;;;;;;6274568;22;20496;-77
2023/04/15 10:50:18;;;;;;;0.30;0.30;;;;;;;;;;6247156;22;20058;-77
2023/04/15 10:52:44;;;;;;;0.20;0.20;;;;;;;;;;6248822;22;20352;-77
2023/04/15 10:55:13;;;;;;;0.20;0.20;;;;;;;;;;6272516;22;20495;-77
2023/04/15 10:57:40;;;;;;;0.10;0.10;;;;;;;;;;6246066;22;20254;-76
2023/04/15 11:00:16;;;;;;;0.10;0.10;;;;;;;;;;6248110;22;20012;-77
2023/04/15 11:02:43;;;;;;;0.20;0.20;;;;;;;;;;6262260;22;20019;-76
2023/04/15 11:05:10;;;;;;;0.20;0.20;;;;;;;;;;6249330;22;20012;-77
2023/04/15 11:07:45;;;;;;;0.10;0.10;;;;;;;;;;6245361;22;20016;-79
2023/04/15 11:10:20;;;;;;;0.20;0.20;;;;;;;;;;6245782;22;20015;-80
2023/04/15 11:12:47;;;;;;;0.15;0.15;;;;;;;;;;6245822;22;20485;-81
2023/04/15 11:15:29;;;;;;;0.20;0.20;;;;;;;;;;6272397;22;20081;-80
2023/04/15 11:18:18;;;;;;;0.10;0.10;;;;;;;;;;6272549;22;20077;-81
2023/04/15 11:20:51;;;;;;;0.10;0.10;;;;;;;;;;6246713;22;20015;-79
2023/04/15 11:23:18;;;;;;;0.10;0.10;;;;;;;;;;6246571;22;20043;-80
2023/04/15 11:25:44;;;;;;;0.10;0.10;;;;;;;;;;6271503;22;20054;-79
2023/04/15 11:28:11;;;;;;;0.20;0.20;;;;;;;;;;6273411;22;20017;-80
2023/04/15 11:30:38;;;;;;;0.10;0.10;;;;;;;;;;6246027;22;20093;-79
2023/04/15 11:33:08;;;;;;;0.10;0.10;;;;;;;;;;6270819;22;20015;-79
2023/04/15 11:39:32;;;;;;;0.10;0.10;;;;;;;;;;6271919;22;20024;-80
2023/04/15 11:41:58;;;;;;;0.10;0.10;;;;;;;;;;6272499;22;20352;-79
2023/04/15 11:44:50;;;;;;;0.10;0.10;;;;;;;;;;6273616;22;20012;-78
2023/04/15 11:47:26;;;;;;;0.13;0.13;;;;;;;;;;6271204;22;20012;-78
2023/04/15 11:49:54;;;;;;;0.10;0.10;;;;;;;;;;6271411;22;20047;-79
2023/04/15 11:52:21;;;;;;;0.10;0.10;;;;;;;;;;6272483;22;20015;-79
2023/04/15 11:54:47;;;;;;;0.10;0.10;;;;;;;;;;6271599;22;20473;-81
2023/04/15 11:57:13;;;;;;;0.20;0.20;;;;;;;;;;6243460;22;20020;-79
2023/04/15 11:59:42;;;;;;;0.20;0.20;;;;;;;;;;6271658;22;20408;-81
2023/04/15 12:02:12;;;;;;;0.20;0.20;;;;;;;;;;6273334;22;20019;-80
2023/04/15 12:04:47;;;;;;;0.10;0.10;;;;;;;;;;6272534;22;20030;-80
2023/04/15 12:07:13;;;;;;;0.20;0.20;;;;;;;;;;6244078;22;20383;-80
2023/04/15 12:09:39;;;;;;;0.10;0.10;;;;;;;;;;6244978;22;20019;-81
2023/04/15 12:12:06;;;;;;;0.10;0.10;;;;;;;;;;6270617;22;20020;-80
2023/04/15 12:14:37;;;;;;;0.10;0.10;;;;;;;;;;6243987;22;20062;-81
2023/04/15 12:17:04;;;;;;;0.20;0.20;;;;;;;;;;6272022;22;20023;-81
2023/04/15 12:19:37;;;;;;;0.20;0.20;;;;;;;;;;6246528;22;20390;-82
2023/04/15 12:22:04;;;;;;;0.10;0.10;;;;;;;;;;6244761;22;20657;-80
2023/04/15 12:24:33;;;;;;;0.10;0.10;;;;;;;;;;6244880;22;20024;-80
2023/04/15 12:27:04;;;;;;;0.20;0.20;;;;;;;;;;6239593;22;20046;-82
2023/04/15 12:29:33;;;;;;;0.10;0.10;;;;;;;;;;6272409;22;20160;-80
2023/04/15 12:32:15;;;;;;;0.10;0.10;;;;;;;;;;6274204;22;20042;-81
2023/04/15 12:34:44;;;;;;;0.10;0.10;;;;;;;;;;6247257;22;20035;-79
2023/04/15 12:37:12;;;;;;;0.10;0.10;;;;;;;;;;6246265;22;20091;-80
2023/04/15 12:39:40;;;;;;;0.10;0.10;;;;;;;;;;6247107;22;20028;-79
2023/04/15 12:42:06;;;;;;;0.13;0.13;;;;;;;;;;6272447;22;20016;-78
2023/04/15 12:44:32;;;;;;;0.15;0.15;;;;;;;;;;6276579;22;20047;-80
2023/04/15 12:46:59;;;;;;;0.20;0.20;;;;;;;;;;6283304;22;20573;-78
2023/04/15 12:49:28;;;;;;;0.20;0.20;;;;;;;;;;6281031;22;20047;-80
2023/04/15 12:51:56;;;;;;;0.13;0.13;;;;;;;;;;6247178;22;20322;-79
2023/04/15 12:54:22;;;;;;;0.10;0.10;;;;;;;;;;6244268;22;20026;-79
2023/04/15 12:56:51;;;;;;;0.13;0.13;;;;;;;;;;6270391;22;20074;-79
2023/04/15 12:59:17;;;;;;;0.20;0.20;;;;;;;;;;6273151;22;20519;-78
2023/04/15 13:01:44;;;;;;;0.20;0.20;;;;;;;;;;6271445;22;20054;-78
2023/04/15 13:04:10;;;;;;;0.10;0.10;;;;;;;;;;6245674;22;20020;-79
2023/04/15 13:06:37;;;;;;;0.17;0.17;;;;;;;;;;6247712;22;20344;-80
2023/04/15 13:09:04;;;;;;;0.20;0.20;;;;;;;;;;6275054;22;20087;-80
2023/04/15 13:11:32;;;;;;;0.17;0.17;;;;;;;;;;6272027;22;20015;-80
2023/04/15 13:13:58;;;;;;;0.20;0.20;;;;;;;;;;6247696;22;20387;-80
2023/04/15 13:16:27;;;;;;;0.20;0.20;;;;;;;;;;6274772;22;20038;-80
2023/04/15 13:18:57;;;;;;;0.20;0.20;;;;;;;;;;6247768;22;20052;-81
2023/04/15 13:21:26;;;;;;;0.10;0.10;;;;;;;;;;6247299;22;20325;-80
2023/04/15 13:23:59;;;;;;;0.10;0.10;;;;;;;;;;6247035;22;20012;-79
2023/04/15 13:26:25;;;;;;;0.20;0.20;;;;;;;;;;6246218;22;20019;-80
2023/04/15 13:28:51;;;;;;;0.15;0.15;;;;;;;;;;6247902;22;20162;-81
2023/04/15 13:31:17;;;;;;;0.10;0.10;;;;;;;;;;6273525;22;20020;-80
2023/04/15 13:33:43;;;;;;;0.20;0.20;;;;;;;;;;6272009;22;20027;-81
2023/04/15 13:36:15;;;;;;;0.10;0.10;;;;;;;;;;6274040;22;20011;-79
2023/04/15 13:38:41;;;;;;;0.20;0.20;;;;;;;;;;6273804;22;20020;-82
2023/04/15 13:41:10;;;;;;;0.20;0.20;;;;;;;;;;6245521;22;20062;-81
2023/04/15 13:43:36;;;;;;;0.10;0.10;;;;;;;;;;6274718;22;20078;-81
2023/04/15 13:46:02;;;;;;;0.10;0.10;;;;;;;;;;6246488;22;20372;-81
2023/04/15 13:48:47;;;;;;;0.17;0.17;;;;;;;;;;6235105;22;20097;-82
2023/04/15 13:51:31;;;;;;;0.10;0.10;;;;;;;;;;6244920;23;20452;-82
2023/04/15 14:03:16;;;;;;;0.20;0.20;;;;;;;;;;6274593;22;20121;-80
2023/04/15 14:06:08;;;;;;;0.15;0.15;;;;;;;;;;6274214;22;20054;-84
2023/04/15 14:08:36;;;;;;;0.20;0.20;;;;;;;;;;6156489;23;20013;-84
2023/04/15 14:11:02;;;;;;;0.10;0.10;;;;;;;;;;6180432;23;20052;-85
2023/04/15 14:13:31;;;;;;;0.20;0.20;;;;;;;;;;6235765;22;20044;-83
2023/04/15 14:19:26;;;;;;;0.20;0.20;;;;;;;;;;6216492;23;20047;-82
2023/04/15 14:21:52;;;;;;;0.10;0.10;;;;;;;;;;6217547;22;20012;-81
2023/04/15 14:24:18;;;;;;;0.10;0.10;;;;;;;;;;6219885;23;20020;-82
2023/04/15 14:27:12;;;;;;;0.20;0.20;;;;;;;;;;6244175;23;20380;-80
2023/04/15 14:29:57;;;;;;;0.20;0.20;;;;;;;;;;6267050;23;20024;-82
2023/04/15 14:36:13;;;;;;;0.20;0.20;;;;;;;;;;6246611;23;20026;-81
2023/04/15 14:38:45;;;;;;;0.20;0.20;;;;;;;;;;6243445;23;20020;-83
2023/04/15 14:41:27;;;;;;;0.20;0.20;;;;;;;;;;6212855;23;20095;-81
2023/04/15 14:44:12;;;;;;;0.13;0.13;;;;;;;;;;6244037;23;20153;-81
2023/04/15 14:46:47;;;;;;;0.20;0.20;;;;;;;;;;6216554;23;20031;-80
2023/04/15 14:49:13;;;;;;;0.20;0.20;;;;;;;;;;6242501;23;20011;-80
2023/04/15 14:51:39;;;;;;;0.20;0.20;;;;;;;;;;6244094;23;20047;-81
2023/04/15 14:54:05;;;;;;;0.10;0.10;;;;;;;;;;6216425;23;20070;-81
2023/04/15 14:56:34;;;;;;;0.20;0.20;;;;;;;;;;6241803;23;20031;-82
2023/04/15 14:59:01;;;;;;;0.15;0.15;;;;;;;;;;6244344;23;20012;-80
2023/04/15 15:01:39;;;;;;;0.10;0.10;;;;;;;;;;6214946;23;20039;-79
2023/04/15 15:07:44;;;;;;;0.10;0.10;;;;;;;;;;6116396;23;20455;-80
2023/04/15 15:10:13;;;;;;;0.20;0.20;;;;;;;;;;6119144;23;20022;-80
2023/04/15 15:13:03;;;;;;;0.20;0.20;;;;;;;;;;6094119;23;20044;-80
2023/04/15 15:16:03;;;;;;;0.13;0.13;;;;;;;;;;6095271;23;20037;-78
2023/04/15 15:18:51;;;;;;;0.10;0.10;;;;;;;;;;6095041;23;20022;-80
2023/04/15 15:24:52;;;;;;;0.10;0.10;;;;;;;;;;6120069;23;20053;-81
2023/04/15 15:27:39;;;;;;;0.10;0.10;;;;;;;;;;6094482;23;20665;-79
2023/04/15 15:30:29;;;;;;;0.20;0.20;;;;;;;;;;6095895;23;20017;-79